sensor_id;sensor_type;location;lat;lon;timestamp;pressure;altitude;pressure_sealevel;temperature;humidity
64862;BME280;62652;42.274;-71.436;2023-04-01T00:00:01;101100.0;;;4.388888888888888;unknown
64862;BME280;62652;42.274;-71.436;2023-04-01T00:01:02;101100.0;;;4.388888888888888;unknown
64862;BME280;62652;42.274;-71.436;2023-04-01T00:02:01;101100.0;;;4.388888888888888;unknown
64862;BME280;62652;42.274;-71.436;2023-04-01T00:03:00;101100.0;;;4.388888888888888;unknown
64862;BME280;62652;42.274;-71.436;2023-04-01T00:04:00;101110.0;;;4.388888888888888;unknown
64862;BME280;62652;42.274;-71.436;2023-04-01T00:05:01;101110.0;;;4.388888888888888;unknown
64862;BME280;62652;42.274;-71.436;2023-04-01T00:06:00;101110.0;;;4.388888888888888;unknown
64862;BME280;62652;42.274;-71.436;2023-04-01T00:07:00;101110.0;;;4.388888888888888;unknown
64862;BME280;62652;42.274;-71.436;2023-04-01T00:08:00;101110.0;;;4.388888888888888;unknown
64862;BME280;62652;42.274;-71.436;2023-04-01T00:09:01;101110.0;;;4.388888888888888;unknown
64862;BME280;62652;42.274;-71.436;2023-04-01T00:10:00;101110.0;;;4.388888888888888;unknown
64862;BME280;62652;42.274;-71.436;2023-04-01T00:11:01;101110.0;;;4.2777777777777795;unknown
64862;BME280;62652;42.274;-71.436;2023-04-01T00:12:01;101110.0;;;4.388888888888888;unknown
64862;BME280;62652;42.274;-71.436;2023-04-01T00:13:01;101110.0;;;4.388888888888888;unknown
64862;BME280;62652;42.274;-71.436;2023-04-01T00:14:01;101100.0;;;4.388888888888888;unknown
64862;BME280;62652;42.274;-71.436;2023-04-01T00:15:02;101100.0;;;4.388888888888888;unknown
64862;BME280;62652;42.274;-71.436;2023-04-01T00:16:00;101100.0;;;4.2777777777777795;unknown
64862;BME280;62652;42.274;-71.436;2023-04-01T00:17:00;101100.0;;;4.2777777777777795;unknown
64862;BME280;62652;42.274;-71.436;2023-04-01T00:18:01;101090.0;;;4.2777777777777795;unknown
64862;BME280;62652;42.274;-71.436;2023-04-01T00:19:00;101100.0;;;4.2777777777777795;unknown
64862;BME280;62652;42.274;-71.436;2023-04-01T00:20:00;101100.0;;;4.388888888888888;unknown
64862;BME280;62652;42.274;-71.436;2023-04-01T00:21:01;101100.0;;;4.388888888888888;unknown
64862;BME280;62652;42.274;-71.436;2023-04-01T00:22:01;101090.0;;;4.388888888888888;unknown
64862;BME280;62652;42.274;-71.436;2023-04-01T00:23:01;101090.0;;;4.388888888888888;unknown
64862;BME280;62652;42.274;-71.436;2023-04-01T00:24:01;101090.0;;;4.388888888888888;unknown
64862;BME280;62652;42.274;-71.436;2023-04-01T00:25:00;101090.0;;;4.2777777777777795;unknown
64862;BME280;62652;42.274;-71.436;2023-04-01T00:26:02;101090.0;;;4.388888888888888;unknown
64862;BME280;62652;42.274;-71.436;2023-04-01T00:27:00;101080.0;;;4.388888888888888;unknown
64862;BME280;62652;42.274;-71.436;2023-04-01T00:28:00;101080.0;;;4.388888888888888;unknown
64862;BME280;62652;42.274;-71.436;2023-04-01T00:29:01;101080.0;;;4.388888888888888;unknown
64862;BME280;62652;42.274;-71.436;2023-04-01T00:30:01;101080.0;;;4.388888888888888;unknown
64862;BME280;62652;42.274;-71.436;2023-04-01T00:31:04;101080.0;;;4.388888888888888;unknown
64862;BME280;62652;42.274;-71.436;2023-04-01T00:32:01;101100.0;;;4.388888888888888;unknown
64862;BME280;62652;42.274;-71.436;2023-04-01T00:33:00;101100.0;;;4.388888888888888;unknown
64862;BME280;62652;42.274;-71.436;2023-04-01T00:34:00;101100.0;;;4.388888888888888;unknown
64862;BME280;62652;42.274;-71.436;2023-04-01T00:35:01;101100.0;;;4.500000000000001;unknown
64862;BME280;62652;42.274;-71.436;2023-04-01T00:36:07;101100.0;;;4.500000000000001;unknown
64862;BME280;62652;42.274;-71.436;2023-04-01T00:37:01;101100.0;;;4.500000000000001;unknown
64862;BME280;62652;42.274;-71.436;2023-04-01T00:38:00;101100.0;;;4.500000000000001;unknown
64862;BME280;62652;42.274;-71.436;2023-04-01T00:39:00;101100.0;;;4.500000000000001;unknown
64862;BME280;62652;42.274;-71.436;2023-04-01T00:40:01;101100.0;;;4.500000000000001;unknown
64862;BME280;62652;42.274;-71.436;2023-04-01T00:41:00;101090.0;;;4.500000000000001;unknown
64862;BME280;62652;42.274;-71.436;2023-04-01T00:42:02;101090.0;;;4.61111111111111;unknown
64862;BME280;62652;42.274;-71.436;2023-04-01T00:43:01;101090.0;;;4.61111111111111;unknown
64862;BME280;62652;42.274;-71.436;2023-04-01T00:44:14;101090.0;;;4.722222222222222;unknown
64862;BME280;62652;42.274;-71.436;2023-04-01T00:46:01;101100.0;;;4.722222222222222;unknown
64862;BME280;62652;42.274;-71.436;2023-04-01T00:47:01;101100.0;;;4.722222222222222;unknown
64862;BME280;62652;42.274;-71.436;2023-04-01T00:48:05;101100.0;;;4.722222222222222;unknown
64862;BME280;62652;42.274;-71.436;2023-04-01T00:49:01;101110.0;;;4.722222222222222;unknown
64862;BME280;62652;42.274;-71.436;2023-04-01T00:50:00;101110.0;;;4.722222222222222;unknown
64862;BME280;62652;42.274;-71.436;2023-04-01T00:51:03;101110.0;;;4.61111111111111;unknown
64862;BME280;62652;42.274;-71.436;2023-04-01T00:52:02;101110.0;;;4.61111111111111;unknown
64862;BME280;62652;42.274;-71.436;2023-04-01T00:53:01;101110.0;;;4.61111111111111;unknown
64862;BME280;62652;42.274;-71.436;2023-04-01T00:54:01;101110.0;;;4.61111111111111;unknown
64862;BME280;62652;42.274;-71.436;2023-04-01T00:55:02;101120.0;;;4.722222222222222;unknown
64862;BME280;62652;42.274;-71.436;2023-04-01T00:56:04;101120.0;;;4.61111111111111;unknown
64862;BME280;62652;42.274;-71.436;2023-04-01T00:57:03;101120.0;;;4.500000000000001;unknown
64862;BME280;62652;42.274;-71.436;2023-04-01T00:58:03;101120.0;;;4.500000000000001;unknown
64862;BME280;62652;42.274;-71.436;2023-04-01T00:59:04;101120.0;;;4.61111111111111;unknown
64862;BME280;62652;42.274;-71.436;2023-04-01T01:00:01;101110.0;;;4.61111111111111;unknown
64862;BME280;62652;42.274;-71.436;2023-04-01T01:01:01;101110.0;;;4.500000000000001;unknown
64862;BME280;62652;42.274;-71.436;2023-04-01T01:02:02;101120.0;;;4.500000000000001;unknown
64862;BME280;62652;42.274;-71.436;2023-04-01T01:03:00;101110.0;;;4.500000000000001;unknown
64862;BME280;62652;42.274;-71.436;2023-04-01T01:04:01;101110.0;;;4.500000000000001;unknown
64862;BME280;62652;42.274;-71.436;2023-04-01T01:05:01;101110.0;;;4.61111111111111;unknown
64862;BME280;62652;42.274;-71.436;2023-04-01T01:06:09;101120.0;;;4.61111111111111;unknown
64862;BME280;62652;42.274;-71.436;2023-04-01T01:07:10;101120.0;;;4.722222222222222;unknown
64862;BME280;62652;42.274;-71.436;2023-04-01T01:08:08;101120.0;;;4.722222222222222;unknown
64862;BME280;62652;42.274;-71.436;2023-04-01T01:09:10;101110.0;;;4.61111111111111;unknown
64862;BME280;62652;42.274;-71.436;2023-04-01T01:10:07;101110.0;;;4.500000000000001;unknown
64862;BME280;62652;42.274;-71.436;2023-04-01T01:11:02;101100.0;;;4.388888888888888;unknown
64862;BME280;62652;42.274;-71.436;2023-04-01T01:12:07;101100.0;;;4.388888888888888;unknown
64862;BME280;62652;42.274;-71.436;2023-04-01T01:13:07;101110.0;;;4.500000000000001;unknown
64862;BME280;62652;42.274;-71.436;2023-04-01T01:14:08;101100.0;;;4.388888888888888;unknown
64862;BME280;62652;42.274;-71.436;2023-04-01T01:15:06;101100.0;;;4.2777777777777795;unknown
64862;BME280;62652;42.274;-71.436;2023-04-01T01:16:06;101110.0;;;4.388888888888888;unknown
64862;BME280;62652;42.274;-71.436;2023-04-01T01:17:09;101110.0;;;4.388888888888888;unknown
64862;BME280;62652;42.274;-71.436;2023-04-01T01:18:05;101120.0;;;4.388888888888888;unknown
64862;BME280;62652;42.274;-71.436;2023-04-01T01:19:09;101130.0;;;4.388888888888888;unknown
64862;BME280;62652;42.274;-71.436;2023-04-01T01:22:11;101140.0;;;4.388888888888888;unknown
64862;BME280;62652;42.274;-71.436;2023-04-01T01:24:09;101140.0;;;4.500000000000001;unknown
64862;BME280;62652;42.274;-71.436;2023-04-01T01:25:13;101130.0;;;4.500000000000001;unknown
64862;BME280;62652;42.274;-71.436;2023-04-01T01:30:13;101140.0;;;4.61111111111111;unknown
64862;BME280;62652;42.274;-71.436;2023-04-01T01:31:06;101140.0;;;4.61111111111111;unknown
64862;BME280;62652;42.274;-71.436;2023-04-01T01:32:06;101130.0;;;4.61111111111111;unknown
64862;BME280;62652;42.274;-71.436;2023-04-01T01:33:09;101130.0;;;4.500000000000001;unknown
64862;BME280;62652;42.274;-71.436;2023-04-01T01:34:10;101130.0;;;4.500000000000001;unknown
64862;BME280;62652;42.274;-71.436;2023-04-01T01:35:14;101120.0;;;4.500000000000001;unknown
64862;BME280;62652;42.274;-71.436;2023-04-01T01:36:02;101120.0;;;4.500000000000001;unknown
64862;BME280;62652;42.274;-71.436;2023-04-01T01:37:05;101110.0;;;4.61111111111111;unknown
64862;BME280;62652;42.274;-71.436;2023-04-01T01:38:03;101110.0;;;4.61111111111111;unknown
64862;BME280;62652;42.274;-71.436;2023-04-01T01:39:01;101110.0;;;4.61111111111111;unknown
64862;BME280;62652;42.274;-71.436;2023-04-01T01:40:04;101100.0;;;4.500000000000001;unknown
64862;BME280;62652;42.274;-71.436;2023-04-01T01:41:03;101100.0;;;4.500000000000001;unknown
64862;BME280;62652;42.274;-71.436;2023-04-01T01:42:04;101100.0;;;4.388888888888888;unknown
64862;BME280;62652;42.274;-71.436;2023-04-01T01:43:05;101090.0;;;4.388888888888888;unknown
64862;BME280;62652;42.274;-71.436;2023-04-01T01:44:04;101090.0;;;4.388888888888888;unknown
64862;BME280;62652;42.274;-71.436;2023-04-01T01:45:01;101090.0;;;4.388888888888888;unknown
64862;BME280;62652;42.274;-71.436;2023-04-01T01:46:04;101090.0;;;4.388888888888888;unknown
64862;BME280;62652;42.274;-71.436;2023-04-01T01:47:01;101090.0;;;4.388888888888888;unknown
64862;BME280;62652;42.274;-71.436;2023-04-01T01:48:02;101080.0;;;4.500000000000001;unknown
64862;BME280;62652;42.274;-71.436;2023-04-01T01:49:03;101080.0;;;4.388888888888888;unknown
64862;BME280;62652;42.274;-71.436;2023-04-01T01:50:01;101080.0;;;4.388888888888888;unknown
64862;BME280;62652;42.274;-71.436;2023-04-01T01:51:01;101070.0;;;4.388888888888888;unknown
64862;BME280;62652;42.274;-71.436;2023-04-01T01:52:00;101070.0;;;4.388888888888888;unknown
64862;BME280;62652;42.274;-71.436;2023-04-01T01:53:04;101060.0;;;4.388888888888888;unknown
64862;BME280;62652;42.274;-71.436;2023-04-01T01:54:00;101060.0;;;4.500000000000001;unknown
64862;BME280;62652;42.274;-71.436;2023-04-01T01:55:01;101060.0;;;4.388888888888888;unknown
64862;BME280;62652;42.274;-71.436;2023-04-01T01:56:01;101060.0;;;4.388888888888888;unknown
64862;BME280;62652;42.274;-71.436;2023-04-01T01:57:04;101060.0;;;4.388888888888888;unknown
64862;BME280;62652;42.274;-71.436;2023-04-01T01:58:05;101050.0;;;4.388888888888888;unknown
64862;BME280;62652;42.274;-71.436;2023-04-01T01:59:03;101050.0;;;4.2777777777777795;unknown
64862;BME280;62652;42.274;-71.436;2023-04-01T02:00:05;101050.0;;;4.2777777777777795;unknown
64862;BME280;62652;42.274;-71.436;2023-04-01T02:01:03;101040.0;;;4.2777777777777795;unknown
64862;BME280;62652;42.274;-71.436;2023-04-01T02:02:02;101040.0;;;4.2777777777777795;unknown
64862;BME280;62652;42.274;-71.436;2023-04-01T02:03:01;101030.0;;;4.2777777777777795;unknown
64862;BME280;62652;42.274;-71.436;2023-04-01T02:04:01;101020.0;;;4.2777777777777795;unknown
64862;BME280;62652;42.274;-71.436;2023-04-01T02:05:01;101010.0;;;4.388888888888888;unknown
64862;BME280;62652;42.274;-71.436;2023-04-01T02:06:03;101000.0;;;4.2777777777777795;unknown
64862;BME280;62652;42.274;-71.436;2023-04-01T02:07:03;101000.0;;;4.2777777777777795;unknown
64862;BME280;62652;42.274;-71.436;2023-04-01T02:08:05;101000.0;;;4.2777777777777795;unknown
64862;BME280;62652;42.274;-71.436;2023-04-01T02:09:02;101000.0;;;4.2777777777777795;unknown
64862;BME280;62652;42.274;-71.436;2023-04-01T02:10:01;101000.0;;;4.388888888888888;unknown
64862;BME280;62652;42.274;-71.436;2023-04-01T02:11:02;101010.0;;;4.388888888888888;unknown
64862;BME280;62652;42.274;-71.436;2023-04-01T02:12:04;101010.0;;;4.388888888888888;unknown
64862;BME280;62652;42.274;-71.436;2023-04-01T02:13:05;101020.0;;;4.388888888888888;unknown
64862;BME280;62652;42.274;-71.436;2023-04-01T02:14:04;101020.0;;;4.388888888888888;unknown
64862;BME280;62652;42.274;-71.436;2023-04-01T02:15:04;101020.0;;;4.500000000000001;unknown
64862;BME280;62652;42.274;-71.436;2023-04-01T02:16:05;101030.0;;;4.500000000000001;unknown
64862;BME280;62652;42.274;-71.436;2023-04-01T02:17:05;101030.0;;;4.500000000000001;unknown
64862;BME280;62652;42.274;-71.436;2023-04-01T02:18:01;101040.0;;;4.500000000000001;unknown
64862;BME280;62652;42.274;-71.436;2023-04-01T02:19:02;101050.0;;;4.61111111111111;unknown
64862;BME280;62652;42.274;-71.436;2023-04-01T02:20:04;101050.0;;;4.61111111111111;unknown
64862;BME280;62652;42.274;-71.436;2023-04-01T02:21:01;101050.0;;;4.61111111111111;unknown
64862;BME280;62652;42.274;-71.436;2023-04-01T02:22:03;101050.0;;;4.61111111111111;unknown
64862;BME280;62652;42.274;-71.436;2023-04-01T02:23:02;101050.0;;;4.500000000000001;unknown
64862;BME280;62652;42.274;-71.436;2023-04-01T02:24:04;101030.0;;;4.388888888888888;unknown
64862;BME280;62652;42.274;-71.436;2023-04-01T02:25:04;101010.0;;;4.388888888888888;unknown
64862;BME280;62652;42.274;-71.436;2023-04-01T02:26:01;101010.0;;;4.500000000000001;unknown
64862;BME280;62652;42.274;-71.436;2023-04-01T02:27:01;101010.0;;;4.500000000000001;unknown
64862;BME280;62652;42.274;-71.436;2023-04-01T02:28:03;101000.0;;;4.500000000000001;unknown
64862;BME280;62652;42.274;-71.436;2023-04-01T02:29:01;101010.0;;;4.61111111111111;unknown
64862;BME280;62652;42.274;-71.436;2023-04-01T02:30:01;101010.0;;;4.61111111111111;unknown
64862;BME280;62652;42.274;-71.436;2023-04-01T02:31:02;101000.0;;;4.61111111111111;unknown
64862;BME280;62652;42.274;-71.436;2023-04-01T02:32:02;101000.0;;;4.61111111111111;unknown
64862;BME280;62652;42.274;-71.436;2023-04-01T02:33:01;101000.0;;;4.61111111111111;unknown
64862;BME280;62652;42.274;-71.436;2023-04-01T02:34:01;100990.0;;;4.61111111111111;unknown
64862;BME280;62652;42.274;-71.436;2023-04-01T02:35:01;100990.0;;;4.61111111111111;unknown
64862;BME280;62652;42.274;-71.436;2023-04-01T02:36:00;100990.0;;;4.61111111111111;unknown
64862;BME280;62652;42.274;-71.436;2023-04-01T02:37:01;100990.0;;;4.61111111111111;unknown
64862;BME280;62652;42.274;-71.436;2023-04-01T02:38:01;100990.0;;;4.61111111111111;unknown
64862;BME280;62652;42.274;-71.436;2023-04-01T02:39:01;101000.0;;;4.61111111111111;unknown
64862;BME280;62652;42.274;-71.436;2023-04-01T02:40:01;100990.0;;;4.61111111111111;unknown
64862;BME280;62652;42.274;-71.436;2023-04-01T02:41:02;101000.0;;;4.61111111111111;unknown
64862;BME280;62652;42.274;-71.436;2023-04-01T02:42:00;100990.0;;;4.61111111111111;unknown
64862;BME280;62652;42.274;-71.436;2023-04-01T02:43:01;100990.0;;;4.388888888888888;unknown
64862;BME280;62652;42.274;-71.436;2023-04-01T02:44:00;100980.0;;;4.388888888888888;unknown
64862;BME280;62652;42.274;-71.436;2023-04-01T02:45:01;100980.0;;;4.388888888888888;unknown
64862;BME280;62652;42.274;-71.436;2023-04-01T02:46:01;100980.0;;;4.388888888888888;unknown
64862;BME280;62652;42.274;-71.436;2023-04-01T02:47:01;100970.0;;;4.388888888888888;unknown
64862;BME280;62652;42.274;-71.436;2023-04-01T02:48:00;100960.0;;;4.388888888888888;unknown
64862;BME280;62652;42.274;-71.436;2023-04-01T02:49:01;100960.0;;;4.388888888888888;unknown
64862;BME280;62652;42.274;-71.436;2023-04-01T02:50:00;100950.0;;;4.388888888888888;unknown
64862;BME280;62652;42.274;-71.436;2023-04-01T02:51:01;100940.0;;;4.500000000000001;unknown
64862;BME280;62652;42.274;-71.436;2023-04-01T02:52:00;100940.0;;;4.388888888888888;unknown
64862;BME280;62652;42.274;-71.436;2023-04-01T02:53:01;100940.0;;;4.388888888888888;unknown
64862;BME280;62652;42.274;-71.436;2023-04-01T02:54:01;100940.0;;;4.388888888888888;unknown
64862;BME280;62652;42.274;-71.436;2023-04-01T02:55:01;100930.0;;;4.388888888888888;unknown
64862;BME280;62652;42.274;-71.436;2023-04-01T02:56:00;100930.0;;;4.388888888888888;unknown
64862;BME280;62652;42.274;-71.436;2023-04-01T02:57:00;100930.0;;;4.388888888888888;unknown
64862;BME280;62652;42.274;-71.436;2023-04-01T02:58:01;100920.0;;;4.500000000000001;unknown
64862;BME280;62652;42.274;-71.436;2023-04-01T02:59:01;100920.0;;;4.388888888888888;unknown
64862;BME280;62652;42.274;-71.436;2023-04-01T03:00:01;100910.0;;;4.388888888888888;unknown
64862;BME280;62652;42.274;-71.436;2023-04-01T03:01:01;100910.0;;;4.2777777777777795;unknown
64862;BME280;62652;42.274;-71.436;2023-04-01T03:02:01;100900.0;;;4.222222222222223;unknown
64862;BME280;62652;42.274;-71.436;2023-04-01T03:03:00;100900.0;;;4.2777777777777795;unknown
64862;BME280;62652;42.274;-71.436;2023-04-01T03:04:01;100890.0;;;4.388888888888888;unknown
64862;BME280;62652;42.274;-71.436;2023-04-01T03:05:00;100880.0;;;4.388888888888888;unknown
64862;BME280;62652;42.274;-71.436;2023-04-01T03:06:05;100880.0;;;4.388888888888888;unknown
64862;BME280;62652;42.274;-71.436;2023-04-01T03:07:01;100870.0;;;4.388888888888888;unknown
64862;BME280;62652;42.274;-71.436;2023-04-01T03:08:01;100870.0;;;4.388888888888888;unknown
64862;BME280;62652;42.274;-71.436;2023-04-01T03:09:00;100860.0;;;4.500000000000001;unknown
64862;BME280;62652;42.274;-71.436;2023-04-01T03:10:00;100860.0;;;4.500000000000001;unknown
64862;BME280;62652;42.274;-71.436;2023-04-01T03:11:01;100860.0;;;4.500000000000001;unknown
64862;BME280;62652;42.274;-71.436;2023-04-01T03:12:01;100860.0;;;4.388888888888888;unknown
64862;BME280;62652;42.274;-71.436;2023-04-01T03:13:01;100860.0;;;4.388888888888888;unknown
64862;BME280;62652;42.274;-71.436;2023-04-01T03:14:01;100850.0;;;4.388888888888888;unknown
64862;BME280;62652;42.274;-71.436;2023-04-01T03:15:01;100850.0;;;4.388888888888888;unknown
64862;BME280;62652;42.274;-71.436;2023-04-01T03:16:01;100850.0;;;4.388888888888888;unknown
64862;BME280;62652;42.274;-71.436;2023-04-01T03:17:00;100850.0;;;4.388888888888888;unknown
64862;BME280;62652;42.274;-71.436;2023-04-01T03:18:01;100850.0;;;4.388888888888888;unknown
64862;BME280;62652;42.274;-71.436;2023-04-01T03:19:00;100850.0;;;4.388888888888888;unknown
64862;BME280;62652;42.274;-71.436;2023-04-01T03:20:01;100850.0;;;4.388888888888888;unknown
64862;BME280;62652;42.274;-71.436;2023-04-01T03:21:12;100850.0;;;4.500000000000001;unknown
64862;BME280;62652;42.274;-71.436;2023-04-01T03:22:00;100850.0;;;4.500000000000001;unknown
64862;BME280;62652;42.274;-71.436;2023-04-01T03:23:00;100840.0;;;4.61111111111111;unknown
64862;BME280;62652;42.274;-71.436;2023-04-01T03:24:00;100840.0;;;4.61111111111111;unknown
64862;BME280;62652;42.274;-71.436;2023-04-01T03:25:00;100840.0;;;4.61111111111111;unknown
64862;BME280;62652;42.274;-71.436;2023-04-01T03:26:00;100840.0;;;4.61111111111111;unknown
64862;BME280;62652;42.274;-71.436;2023-04-01T03:27:00;100840.0;;;4.500000000000001;unknown
64862;BME280;62652;42.274;-71.436;2023-04-01T03:28:00;100830.0;;;4.500000000000001;unknown
64862;BME280;62652;42.274;-71.436;2023-04-01T03:29:00;100830.0;;;4.500000000000001;unknown
64862;BME280;62652;42.274;-71.436;2023-04-01T03:30:00;100830.0;;;4.61111111111111;unknown
64862;BME280;62652;42.274;-71.436;2023-04-01T03:31:01;100820.0;;;4.61111111111111;unknown
64862;BME280;62652;42.274;-71.436;2023-04-01T03:32:00;100820.0;;;4.61111111111111;unknown
64862;BME280;62652;42.274;-71.436;2023-04-01T03:33:01;100820.0;;;4.500000000000001;unknown
64862;BME280;62652;42.274;-71.436;2023-04-01T03:34:01;100810.0;;;4.61111111111111;unknown
64862;BME280;62652;42.274;-71.436;2023-04-01T03:35:00;100810.0;;;4.61111111111111;unknown
64862;BME280;62652;42.274;-71.436;2023-04-01T03:36:00;100810.0;;;4.722222222222222;unknown
64862;BME280;62652;42.274;-71.436;2023-04-01T03:37:00;100800.0;;;4.722222222222222;unknown
64862;BME280;62652;42.274;-71.436;2023-04-01T03:38:01;100800.0;;;4.61111111111111;unknown
64862;BME280;62652;42.274;-71.436;2023-04-01T03:39:00;100790.0;;;4.61111111111111;unknown
64862;BME280;62652;42.274;-71.436;2023-04-01T03:40:01;100790.0;;;4.722222222222222;unknown
64862;BME280;62652;42.274;-71.436;2023-04-01T03:41:01;100790.0;;;4.722222222222222;unknown
64862;BME280;62652;42.274;-71.436;2023-04-01T03:42:01;100780.0;;;4.61111111111111;unknown
64862;BME280;62652;42.274;-71.436;2023-04-01T03:43:00;100780.0;;;4.61111111111111;unknown
64862;BME280;62652;42.274;-71.436;2023-04-01T03:44:00;100780.0;;;4.61111111111111;unknown
64862;BME280;62652;42.274;-71.436;2023-04-01T03:45:00;100780.0;;;4.722222222222222;unknown
64862;BME280;62652;42.274;-71.436;2023-04-01T03:46:00;100780.0;;;4.722222222222222;unknown
64862;BME280;62652;42.274;-71.436;2023-04-01T03:47:01;100770.0;;;4.61111111111111;unknown
64862;BME280;62652;42.274;-71.436;2023-04-01T03:48:01;100770.0;;;4.61111111111111;unknown
64862;BME280;62652;42.274;-71.436;2023-04-01T03:49:00;100770.0;;;4.61111111111111;unknown
64862;BME280;62652;42.274;-71.436;2023-04-01T03:50:01;100770.0;;;4.61111111111111;unknown
64862;BME280;62652;42.274;-71.436;2023-04-01T03:51:01;100760.0;;;4.61111111111111;unknown
64862;BME280;62652;42.274;-71.436;2023-04-01T03:52:00;100760.0;;;4.61111111111111;unknown
64862;BME280;62652;42.274;-71.436;2023-04-01T03:53:01;100750.0;;;4.61111111111111;unknown
64862;BME280;62652;42.274;-71.436;2023-04-01T03:54:01;100740.0;;;4.61111111111111;unknown
64862;BME280;62652;42.274;-71.436;2023-04-01T03:55:01;100740.0;;;4.61111111111111;unknown
64862;BME280;62652;42.274;-71.436;2023-04-01T03:56:04;100740.0;;;4.722222222222222;unknown
64862;BME280;62652;42.274;-71.436;2023-04-01T03:57:01;100730.0;;;4.722222222222222;unknown
64862;BME280;62652;42.274;-71.436;2023-04-01T03:58:00;100730.0;;;4.722222222222222;unknown
64862;BME280;62652;42.274;-71.436;2023-04-01T03:59:03;100730.0;;;4.777777777777779;unknown
64862;BME280;62652;42.274;-71.436;2023-04-01T04:00:01;100730.0;;;4.777777777777779;unknown
64862;BME280;62652;42.274;-71.436;2023-04-01T04:01:01;100730.0;;;4.777777777777779;unknown
64862;BME280;62652;42.274;-71.436;2023-04-01T04:02:01;100720.0;;;4.777777777777779;unknown
64862;BME280;62652;42.274;-71.436;2023-04-01T04:03:01;100720.0;;;4.777777777777779;unknown
64862;BME280;62652;42.274;-71.436;2023-04-01T04:04:01;100720.0;;;4.777777777777779;unknown
64862;BME280;62652;42.274;-71.436;2023-04-01T04:05:01;100710.0;;;4.8888888888888875;unknown
64862;BME280;62652;42.274;-71.436;2023-04-01T04:06:00;100710.0;;;4.8888888888888875;unknown
64862;BME280;62652;42.274;-71.436;2023-04-01T04:07:00;100710.0;;;4.777777777777779;unknown
64862;BME280;62652;42.274;-71.436;2023-04-01T04:08:01;100700.0;;;4.8888888888888875;unknown
64862;BME280;62652;42.274;-71.436;2023-04-01T04:09:01;100700.0;;;4.8888888888888875;unknown
64862;BME280;62652;42.274;-71.436;2023-04-01T04:10:01;100690.0;;;4.8888888888888875;unknown
64862;BME280;62652;42.274;-71.436;2023-04-01T04:11:01;100690.0;;;4.8888888888888875;unknown
64862;BME280;62652;42.274;-71.436;2023-04-01T04:12:01;100690.0;;;4.8888888888888875;unknown
64862;BME280;62652;42.274;-71.436;2023-04-01T04:13:00;100690.0;;;4.8888888888888875;unknown
64862;BME280;62652;42.274;-71.436;2023-04-01T04:14:01;100690.0;;;4.8888888888888875;unknown
64862;BME280;62652;42.274;-71.436;2023-04-01T04:15:01;100680.0;;;4.8888888888888875;unknown
64862;BME280;62652;42.274;-71.436;2023-04-01T04:16:00;100680.0;;;5.0;unknown
64862;BME280;62652;42.274;-71.436;2023-04-01T04:17:00;100680.0;;;5.0;unknown
64862;BME280;62652;42.274;-71.436;2023-04-01T04:18:00;100680.0;;;4.8888888888888875;unknown
64862;BME280;62652;42.274;-71.436;2023-04-01T04:19:01;100670.0;;;4.8888888888888875;unknown
64862;BME280;62652;42.274;-71.436;2023-04-01T04:20:01;100670.0;;;4.8888888888888875;unknown
64862;BME280;62652;42.274;-71.436;2023-04-01T04:21:00;100670.0;;;4.8888888888888875;unknown
64862;BME280;62652;42.274;-71.436;2023-04-01T04:22:00;100680.0;;;4.8888888888888875;unknown
64862;BME280;62652;42.274;-71.436;2023-04-01T04:23:00;100670.0;;;4.8888888888888875;unknown
64862;BME280;62652;42.274;-71.436;2023-04-01T04:24:02;100670.0;;;5.0;unknown
64862;BME280;62652;42.274;-71.436;2023-04-01T04:25:01;100670.0;;;5.0;unknown
64862;BME280;62652;42.274;-71.436;2023-04-01T04:26:04;100670.0;;;5.0;unknown
64862;BME280;62652;42.274;-71.436;2023-04-01T04:27:00;100670.0;;;5.0;unknown
64862;BME280;62652;42.274;-71.436;2023-04-01T04:28:01;100680.0;;;5.0;unknown
64862;BME280;62652;42.274;-71.436;2023-04-01T04:29:01;100670.0;;;5.0;unknown
64862;BME280;62652;42.274;-71.436;2023-04-01T04:30:01;100680.0;;;5.0;unknown
64862;BME280;62652;42.274;-71.436;2023-04-01T04:31:01;100670.0;;;5.0;unknown